HELX

Luxor International Airport

Luxor, Egypt
METAR HELX 191100Z 34005KT CAVOK 21/09 Q1019 NOSIG
Observed Flight Rules
Dec-19 @ 11:00 UTC (an hour ago) Visual Flight Rules
Wind Visibility Clouds
340° at 5 knots 10,000+ meters
  • Clear skies
Temperatures Readings
Current 21°C / 70°F
Dewpoint 9°C / 48°F
Humidity 46%
Altimeter 30.09" Hg
Pressure 1019 hPa
Elevation 88
METAR HELX 191100Z 34005KT CAVOK 21/09 Q1019 NOSIG
Observed Flight Rules
Dec-19 @ 11:00 UTC
(an hour ago)
VFR
Wind Visibility
340° at 5 knots 10,000+ meters
Clouds
  • Clear skies
Temperature Dewpoint
21°C / 70°F 9°C / 48°F
Humidity Altimeter Pressure
46% 30.09" Hg 1019 hPa